createdAt,value
2023-02-01T06:32:10.774Z,994.76
2023-02-01T06:33:10.786Z,994.67
2023-02-01T06:34:10.793Z,994.74
2023-02-01T06:35:12.129Z,994.55
2023-02-01T06:36:12.069Z,994.60
2023-02-01T06:37:11.919Z,994.54
2023-02-01T06:38:11.806Z,994.50
2023-02-01T06:39:11.880Z,994.58
2023-02-01T06:40:12.095Z,994.58
2023-02-01T06:41:44.419Z,994.46
2023-02-01T06:42:12.175Z,994.52
2023-02-01T06:43:12.696Z,994.48
2023-02-01T06:44:11.844Z,994.48
2023-02-01T06:45:11.812Z,994.45
2023-02-01T06:48:28.121Z,994.46
2023-02-01T06:49:28.246Z,994.58
2023-02-01T06:52:46.911Z,994.54
2023-02-01T06:53:55.897Z,994.59
2023-02-01T06:54:48.299Z,994.50
2023-02-01T06:58:03.309Z,994.52
2023-02-01T06:59:03.543Z,994.46
2023-02-01T07:00:03.665Z,994.47
2023-02-01T07:01:03.291Z,994.47
2023-02-01T07:02:03.239Z,994.42
2023-02-01T07:03:16.206Z,994.50
2023-02-01T07:04:03.360Z,994.51
2023-02-01T07:05:03.248Z,994.48
2023-02-01T07:06:36.955Z,994.50
2023-02-01T07:07:36.916Z,994.47
2023-02-01T07:08:04.617Z,994.55
2023-02-01T07:09:05.264Z,994.52
2023-02-01T07:10:36.883Z,994.49
2023-02-01T07:11:05.693Z,994.59
2023-02-01T07:12:36.931Z,994.56
2023-02-01T07:13:04.636Z,994.58
2023-02-01T07:14:33.218Z,994.58
2023-02-01T07:15:04.540Z,994.61
2023-02-01T07:16:05.719Z,994.61
2023-02-01T07:17:04.286Z,994.68
2023-02-01T07:20:18.792Z,994.55
2023-02-01T07:21:19.066Z,994.59
2023-02-01T07:22:18.806Z,994.63
2023-02-01T07:23:26.879Z,994.59
2023-02-01T07:24:18.972Z,994.57
2023-02-01T07:25:18.862Z,994.53
2023-02-01T07:26:19.529Z,994.62
2023-02-01T07:27:19.924Z,994.63
2023-02-01T07:28:20.030Z,994.69
2023-02-01T07:29:19.950Z,994.71
2023-02-01T07:30:19.916Z,994.70
2023-02-01T07:31:20.024Z,994.68
2023-02-01T07:32:19.863Z,994.71
2023-02-01T07:33:19.898Z,994.78
2023-02-01T07:37:00.146Z,994.95
2023-02-01T07:38:07.841Z,994.96
2023-02-01T07:39:00.133Z,994.91
2023-02-01T07:40:00.084Z,994.96
2023-02-01T07:41:00.197Z,994.97
2023-02-01T07:42:00.177Z,994.88
2023-02-01T07:43:00.002Z,994.99
2023-02-01T07:44:00.156Z,995.00
2023-02-01T07:45:20.906Z,995.04
2023-02-01T07:46:01.108Z,995.00
2023-02-01T07:47:00.087Z,995.04
2023-02-01T07:48:00.070Z,994.96
2023-02-01T07:49:00.169Z,994.87
2023-02-01T07:49:59.943Z,995.02
2023-02-01T07:51:01.143Z,994.94
2023-02-01T07:52:01.151Z,994.98
2023-02-01T07:53:01.061Z,994.97
2023-02-01T07:54:01.191Z,994.90
2023-02-01T07:55:01.103Z,994.95
2023-02-01T07:56:01.153Z,994.96
2023-02-01T07:57:01.009Z,995.00
2023-02-01T07:58:01.032Z,994.98
2023-02-01T07:59:00.985Z,995.02
2023-02-01T08:00:01.147Z,995.00
2023-02-01T08:01:33.585Z,994.98
2023-02-01T08:02:01.211Z,994.94
2023-02-01T08:03:33.567Z,995.05
2023-02-01T08:04:01.302Z,995.06
2023-02-01T08:05:01.237Z,995.08
2023-02-01T08:06:00.989Z,994.98
2023-02-01T08:07:01.018Z,995.02
2023-02-01T08:08:00.947Z,995.09
2023-02-01T08:09:00.915Z,995.09
2023-02-01T08:10:00.996Z,995.16
2023-02-01T08:11:00.885Z,995.27
2023-02-01T08:12:00.952Z,995.17
2023-02-01T08:13:00.924Z,995.16
2023-02-01T08:14:00.931Z,995.25
2023-02-01T08:15:01.798Z,995.26
2023-02-01T08:16:00.862Z,995.24
2023-02-01T08:17:00.829Z,995.21
2023-02-01T08:18:00.893Z,995.30
2023-02-01T08:19:01.099Z,995.33
2023-02-01T08:20:00.963Z,995.24
2023-02-01T08:21:00.827Z,995.14
2023-02-01T08:22:00.820Z,995.19
2023-02-01T08:23:00.875Z,995.29
2023-02-01T08:24:00.789Z,995.25
2023-02-01T08:25:00.774Z,995.33
2023-02-01T08:26:00.752Z,995.36
2023-02-01T08:27:00.765Z,995.38
2023-02-01T08:28:00.898Z,995.41
2023-02-01T08:29:00.774Z,995.38
2023-02-01T08:30:00.760Z,995.44
2023-02-01T08:31:00.753Z,995.45
2023-02-01T08:32:00.730Z,995.42
2023-02-01T08:33:00.707Z,995.61
2023-02-01T08:34:00.727Z,995.48
2023-02-01T08:35:00.694Z,995.55
2023-02-01T08:36:00.772Z,995.43
2023-02-01T08:37:00.637Z,995.51
2023-02-01T08:38:00.621Z,995.44
2023-02-01T08:39:00.643Z,995.36
2023-02-01T08:40:00.737Z,995.41
2023-02-01T08:41:00.599Z,995.43
2023-02-01T08:42:00.699Z,995.41
2023-02-01T08:43:00.595Z,995.37
2023-02-01T08:44:00.621Z,995.50
2023-02-01T08:45:00.619Z,995.36
2023-02-01T08:46:00.626Z,995.48
2023-02-01T08:47:00.752Z,995.54
2023-02-01T08:48:00.517Z,995.51
2023-02-01T08:49:01.604Z,995.39
2023-02-01T08:50:00.653Z,995.40
2023-02-01T08:51:00.550Z,995.48
2023-02-01T08:52:03.934Z,995.53
2023-02-01T08:53:01.584Z,995.56
2023-02-01T08:54:00.506Z,995.53
2023-02-01T08:55:00.527Z,995.53
2023-02-01T08:56:00.545Z,995.60
2023-02-01T08:57:00.506Z,995.58
2023-02-01T08:58:00.458Z,995.60
2023-02-01T08:59:34.355Z,995.67
2023-02-01T09:00:00.746Z,995.70
2023-02-01T09:01:00.677Z,995.70
2023-02-01T09:02:00.688Z,995.65
2023-02-01T09:03:00.549Z,995.68
2023-02-01T09:04:00.487Z,995.65
2023-02-01T09:05:01.925Z,995.70
2023-02-01T09:06:00.376Z,995.71
2023-02-01T09:07:00.400Z,995.75
2023-02-01T09:08:00.347Z,995.64
2023-02-01T09:09:00.474Z,995.59
2023-02-01T09:10:00.450Z,995.64
2023-02-01T09:11:03.002Z,995.63
2023-02-01T09:12:01.449Z,995.62
2023-02-01T09:13:00.335Z,995.48
2023-02-01T09:14:00.888Z,995.66
2023-02-01T09:15:01.622Z,995.65
2023-02-01T09:16:00.350Z,995.63
2023-02-01T09:17:00.345Z,995.65
2023-02-01T09:18:00.469Z,995.66
2023-02-01T09:19:14.820Z,995.68
2023-02-01T09:20:02.287Z,995.74
2023-02-01T09:21:00.957Z,995.69
2023-02-01T09:22:01.471Z,995.63
2023-02-01T09:23:00.202Z,995.64
2023-02-01T09:24:00.282Z,995.68
2023-02-01T09:25:00.288Z,995.71
2023-02-01T09:26:00.150Z,995.76
2023-02-01T09:27:00.333Z,995.81
2023-02-01T09:28:00.155Z,995.77
2023-02-01T09:29:00.192Z,995.74
2023-02-01T09:30:00.210Z,995.75
2023-02-01T09:31:00.337Z,995.74
2023-02-01T09:32:04.027Z,995.70
2023-02-01T09:33:00.120Z,995.68
2023-02-01T09:34:00.245Z,995.67
2023-02-01T09:35:00.125Z,995.73
2023-02-01T09:36:00.132Z,995.65
2023-02-01T09:37:00.187Z,995.70
2023-02-01T09:38:00.927Z,995.63
2023-02-01T09:39:01.816Z,995.61
2023-02-01T09:40:00.109Z,995.65
2023-02-01T09:41:00.047Z,995.66
2023-02-01T09:42:00.075Z,995.67
2023-02-01T09:43:00.052Z,995.66
2023-02-01T09:43:59.981Z,995.70
2023-02-01T09:45:34.906Z,995.65
2023-02-01T09:46:00.232Z,995.67
2023-02-01T09:47:00.496Z,995.66
2023-02-01T09:48:00.025Z,995.62
2023-02-01T09:51:16.925Z,995.67
2023-02-01T09:52:25.622Z,995.67
2023-02-01T09:53:18.307Z,995.64
2023-02-01T09:54:18.355Z,995.64
2023-02-01T09:55:18.127Z,995.62
2023-02-01T09:58:33.625Z,995.61
2023-02-01T09:59:33.929Z,995.63
2023-02-01T10:00:33.684Z,995.57
2023-02-01T10:01:33.616Z,995.57
2023-02-01T10:02:33.476Z,995.59
2023-02-01T10:03:41.582Z,995.57
2023-02-01T10:04:35.052Z,995.55
2023-02-01T10:05:36.254Z,995.52
2023-02-01T10:06:34.713Z,995.54
2023-02-01T10:07:34.792Z,995.61
2023-02-01T10:08:34.764Z,995.62
2023-02-01T10:09:34.616Z,995.51
2023-02-01T10:10:35.177Z,995.56
2023-02-01T10:11:34.608Z,995.57
2023-02-01T10:12:34.843Z,995.48
2023-02-01T10:13:34.637Z,995.52
2023-02-01T10:14:34.549Z,995.54
2023-02-01T10:15:34.947Z,995.60
2023-02-01T10:16:34.733Z,995.53
2023-02-01T10:17:34.514Z,995.49
2023-02-01T10:18:34.956Z,995.57
2023-02-01T10:19:34.497Z,995.52
2023-02-01T10:20:34.551Z,995.49
2023-02-01T10:21:34.464Z,995.51
2023-02-01T10:22:59.936Z,995.51
2023-02-01T10:23:36.513Z,995.55
2023-02-01T10:24:34.461Z,995.46
2023-02-01T10:25:34.520Z,995.44
2023-02-01T10:26:34.423Z,995.46
2023-02-01T10:27:34.416Z,995.45
2023-02-01T10:28:34.468Z,995.40
2023-02-01T10:29:34.446Z,995.37
2023-02-01T10:30:35.656Z,995.41
2023-02-01T10:31:34.562Z,995.42
2023-02-01T10:32:34.463Z,995.38
2023-02-01T10:33:34.440Z,995.32
2023-02-01T10:34:34.348Z,995.38
2023-02-01T10:35:34.479Z,995.37
2023-02-01T10:36:34.353Z,995.36
2023-02-01T10:37:34.364Z,995.33
2023-02-01T10:38:35.413Z,995.36
2023-02-01T10:39:34.345Z,995.37
2023-02-01T10:40:34.338Z,995.35
2023-02-01T10:41:34.613Z,995.35
2023-02-01T10:42:34.330Z,995.41
2023-02-01T10:43:34.267Z,995.33
2023-02-01T10:44:34.254Z,995.27
2023-02-01T10:46:22.949Z,995.31
2023-02-01T10:46:34.486Z,995.28
2023-02-01T10:47:34.475Z,995.33
2023-02-01T10:48:34.344Z,995.33
2023-02-01T10:49:34.211Z,995.28
2023-02-01T10:50:35.631Z,995.41
2023-02-01T10:51:36.304Z,995.34
2023-02-01T10:52:34.179Z,995.36
2023-02-01T10:53:34.178Z,995.28
2023-02-01T10:54:34.200Z,995.29
2023-02-01T10:56:08.963Z,995.18
2023-02-01T10:56:35.026Z,995.26
2023-02-01T10:57:34.155Z,995.25
2023-02-01T10:58:34.126Z,995.27
2023-02-01T10:59:34.090Z,995.11
2023-02-01T11:00:34.140Z,995.16
2023-02-01T11:01:34.206Z,995.15
2023-02-01T11:02:34.136Z,995.13
2023-02-01T11:03:34.115Z,995.12
2023-02-01T11:04:34.062Z,995.07
2023-02-01T11:05:34.062Z,995.04
2023-02-01T11:06:34.035Z,995.03
2023-02-01T11:07:34.071Z,995.00
2023-02-01T11:08:34.106Z,995.03
2023-02-01T11:09:34.097Z,994.99
2023-02-01T11:10:34.178Z,995.15
2023-02-01T11:11:33.977Z,995.03
2023-02-01T11:12:33.998Z,995.03
2023-02-01T11:13:34.139Z,994.99
2023-02-01T11:14:34.084Z,994.94
2023-02-01T11:15:34.023Z,994.99
2023-02-01T11:16:34.013Z,994.97
2023-02-01T11:17:34.033Z,994.98
2023-02-01T11:18:33.955Z,994.84
2023-02-01T11:19:34.794Z,994.72
2023-02-01T11:20:33.960Z,994.77
2023-02-01T11:21:34.672Z,994.66
2023-02-01T11:22:33.864Z,994.84
2023-02-01T11:23:34.113Z,994.75
2023-02-01T11:24:33.903Z,994.76
2023-02-01T11:25:33.880Z,994.86
2023-02-01T11:26:34.101Z,994.73
2023-02-01T11:27:34.740Z,994.79
2023-02-01T11:28:33.896Z,994.71
2023-02-01T11:29:33.948Z,994.80
2023-02-01T11:30:33.844Z,994.72
2023-02-01T11:31:33.967Z,994.71
2023-02-01T11:32:34.987Z,994.71
2023-02-01T11:33:33.873Z,994.74
2023-02-01T11:34:33.794Z,994.71
2023-02-01T11:35:34.768Z,994.87
2023-02-01T11:36:33.766Z,994.78
2023-02-01T11:37:33.730Z,994.76
2023-02-01T11:38:33.775Z,994.76
2023-02-01T11:39:33.715Z,994.70
2023-02-01T11:40:33.753Z,994.77
2023-02-01T11:41:33.654Z,994.75
2023-02-01T11:42:33.711Z,994.85
2023-02-01T11:43:33.671Z,994.83
2023-02-01T11:44:33.984Z,994.90
2023-02-01T11:45:33.672Z,994.85
2023-02-01T11:46:33.708Z,994.84
2023-02-01T11:47:33.696Z,994.84
2023-02-01T11:48:33.617Z,994.87
2023-02-01T11:49:33.613Z,994.74
2023-02-01T11:50:33.702Z,994.74
2023-02-01T11:51:34.251Z,994.77
2023-02-01T11:52:33.651Z,994.73
2023-02-01T11:53:33.581Z,994.71
2023-02-01T11:54:33.657Z,994.72
2023-02-01T11:55:34.075Z,994.66
2023-02-01T11:56:33.592Z,994.70
2023-02-01T11:57:33.550Z,994.79
2023-02-01T11:58:34.205Z,994.75
2023-02-01T11:59:33.916Z,994.97
2023-02-01T12:00:33.513Z,994.52
2023-02-01T12:01:33.558Z,994.65
2023-02-01T12:02:33.490Z,994.52
2023-02-01T12:03:33.510Z,994.56
2023-02-01T12:04:33.434Z,994.48
2023-02-01T12:05:33.508Z,994.52
2023-02-01T12:06:33.487Z,994.43
2023-02-01T12:07:33.452Z,994.51
2023-02-01T12:08:33.667Z,994.39
2023-02-01T12:09:33.458Z,994.34
2023-02-01T12:10:33.919Z,994.35
2023-02-01T12:11:33.428Z,994.40
2023-02-01T12:12:33.436Z,994.40
2023-02-01T12:13:33.346Z,994.36
2023-02-01T12:14:33.429Z,994.42
2023-02-01T12:15:33.372Z,994.44
2023-02-01T12:16:33.593Z,994.37
2023-02-01T12:17:33.528Z,994.32
2023-02-01T12:19:06.060Z,994.45
2023-02-01T12:19:33.604Z,994.32
2023-02-01T12:20:33.469Z,994.41
2023-02-01T12:21:33.427Z,994.40
2023-02-01T12:22:33.320Z,994.43
2023-02-01T12:23:33.585Z,994.49
2023-02-01T12:24:33.255Z,994.42
2023-02-01T12:25:33.300Z,994.36
2023-02-01T12:26:33.731Z,994.30
2023-02-01T12:27:33.216Z,994.42
2023-02-01T12:28:33.724Z,994.37
2023-02-01T12:29:33.219Z,994.37
2023-02-01T12:30:33.343Z,994.34
2023-02-01T12:31:33.304Z,994.37
2023-02-01T12:32:33.221Z,994.34
2023-02-01T12:33:33.864Z,994.28
2023-02-01T12:34:33.405Z,994.31
2023-02-01T12:35:33.505Z,994.30
2023-02-01T12:36:33.233Z,994.18
2023-02-01T12:37:33.186Z,994.34
2023-02-01T12:38:33.106Z,994.29
2023-02-01T12:39:33.659Z,994.26
2023-02-01T12:40:33.112Z,994.18
2023-02-01T12:41:33.157Z,994.13
2023-02-01T12:42:33.074Z,994.07
2023-02-01T12:43:33.098Z,994.09
2023-02-01T12:44:33.149Z,993.89
2023-02-01T12:45:34.226Z,993.93
2023-02-01T12:46:33.088Z,993.98
2023-02-01T12:48:05.905Z,993.96
2023-02-01T12:48:33.218Z,993.94
2023-02-01T12:49:33.456Z,993.83
2023-02-01T12:50:33.101Z,993.80
2023-02-01T12:51:33.170Z,993.86
2023-02-01T12:52:33.017Z,993.67
2023-02-01T12:54:07.103Z,993.80
2023-02-01T12:54:34.941Z,993.79
2023-02-01T12:55:33.057Z,993.73
2023-02-01T12:56:33.316Z,993.84
2023-02-01T12:57:32.961Z,993.70
2023-02-01T12:58:33.015Z,993.80
2023-02-01T12:59:33.494Z,993.71
2023-02-01T13:00:32.903Z,993.69
2023-02-01T13:01:32.968Z,993.62
2023-02-01T13:02:33.054Z,993.70
2023-02-01T13:03:33.401Z,993.78
2023-02-01T13:04:32.854Z,993.72
2023-02-01T13:05:32.924Z,993.64
2023-02-01T13:06:32.848Z,993.73
2023-02-01T13:07:33.025Z,993.68
2023-02-01T13:09:06.871Z,993.46
2023-02-01T13:09:33.056Z,993.45
2023-02-01T13:10:32.974Z,993.44
2023-02-01T13:11:32.842Z,993.56
2023-02-01T13:12:32.786Z,993.40
2023-02-01T13:13:32.804Z,993.45
2023-02-01T13:14:32.998Z,993.49
2023-02-01T13:15:34.431Z,993.42
2023-02-01T13:16:32.911Z,993.45
2023-02-01T13:17:32.762Z,993.38
2023-02-01T13:18:32.701Z,993.46
2023-02-01T13:19:33.125Z,993.40
2023-02-01T13:20:32.754Z,993.37
2023-02-01T13:21:32.786Z,993.33
2023-02-01T13:22:33.948Z,993.36
2023-02-01T13:23:33.675Z,993.27
2023-02-01T13:24:32.919Z,993.32
2023-02-01T13:25:32.714Z,993.28
2023-02-01T13:26:33.021Z,993.31
2023-02-01T13:27:32.627Z,993.34
2023-02-01T13:28:32.749Z,993.35
2023-02-01T13:29:33.142Z,993.46
2023-02-01T13:30:32.680Z,993.53
2023-02-01T13:31:33.199Z,993.48
2023-02-01T13:32:57.101Z,993.53
2023-02-01T13:33:53.465Z,993.37
2023-02-01T13:34:33.597Z,993.57
2023-02-01T13:35:32.644Z,993.47
2023-02-01T13:36:33.343Z,993.50
2023-02-01T13:37:32.545Z,993.48
2023-02-01T13:38:34.607Z,993.45
2023-02-01T13:39:32.505Z,993.43
2023-02-01T13:40:33.009Z,993.42
2023-02-01T13:42:08.162Z,993.46
2023-02-01T13:42:33.385Z,993.51
2023-02-01T13:43:32.596Z,993.39
2023-02-01T13:44:32.711Z,993.59
2023-02-01T13:45:32.754Z,993.54
2023-02-01T13:46:32.950Z,993.53
2023-02-01T13:47:32.902Z,993.33
2023-02-01T13:48:32.740Z,993.52
2023-02-01T13:49:33.421Z,993.45
2023-02-01T13:50:32.543Z,993.58
2023-02-01T13:54:25.720Z,993.39
2023-02-01T13:55:26.421Z,993.40
2023-02-01T13:56:26.008Z,993.34
2023-02-01T13:57:25.739Z,993.40
2023-02-01T13:58:25.735Z,993.37
2023-02-01T13:59:26.028Z,993.23
2023-02-01T14:00:25.608Z,993.25
2023-02-01T14:01:25.581Z,993.31
2023-02-01T14:02:25.509Z,993.26
2023-02-01T14:03:25.629Z,993.37
2023-02-01T14:04:25.573Z,993.34
2023-02-01T14:05:25.908Z,993.24
2023-02-01T14:06:25.490Z,993.31
2023-02-01T14:07:26.056Z,993.32
2023-02-01T14:08:25.492Z,993.45
2023-02-01T14:09:27.119Z,993.27
2023-02-01T14:10:26.988Z,993.41
2023-02-01T14:11:28.412Z,993.28
2023-02-01T14:12:27.661Z,993.46
2023-02-01T14:13:26.677Z,993.39
2023-02-01T14:14:26.968Z,993.44
2023-02-01T14:15:27.625Z,993.38
2023-02-01T14:16:27.037Z,993.38
2023-02-01T14:17:26.569Z,993.38
2023-02-01T14:18:26.781Z,993.37
2023-02-01T14:19:26.882Z,993.36
2023-02-01T14:20:28.458Z,993.32
2023-02-01T14:21:27.013Z,993.24
2023-02-01T14:22:26.888Z,993.23
2023-02-01T14:23:26.819Z,993.25
2023-02-01T14:24:26.481Z,993.31
2023-02-01T14:25:26.822Z,993.27
2023-02-01T14:26:26.579Z,993.15
2023-02-01T14:27:27.740Z,993.21
2023-02-01T14:28:26.522Z,993.22
2023-02-01T14:29:26.685Z,993.21
2023-02-01T14:30:26.491Z,993.27
2023-02-01T14:31:26.975Z,993.29
2023-02-01T14:32:27.292Z,993.23
2023-02-01T14:33:26.769Z,993.29
2023-02-01T14:34:26.800Z,993.26
2023-02-01T14:35:26.845Z,993.27
2023-02-01T14:36:26.450Z,993.12
2023-02-01T14:37:26.476Z,993.28
2023-02-01T14:38:26.778Z,993.23
2023-02-01T14:39:26.524Z,993.22
2023-02-01T14:40:26.353Z,993.39
2023-02-01T14:41:26.450Z,993.39
2023-02-01T14:42:27.157Z,993.42
2023-02-01T14:43:33.756Z,993.47
2023-02-01T14:44:27.264Z,993.35
2023-02-01T14:45:27.236Z,993.42
2023-02-01T14:46:26.411Z,993.58
2023-02-01T14:47:26.362Z,993.45
2023-02-01T14:48:26.645Z,993.33
2023-02-01T14:51:27.581Z,993.50
2023-02-01T14:52:27.571Z,993.49
2023-02-01T14:53:27.544Z,993.50
2023-02-01T14:54:27.673Z,993.60
2023-02-01T14:55:27.480Z,993.59
2023-02-01T14:56:27.457Z,993.57
2023-02-01T14:57:27.420Z,993.54
2023-02-01T14:58:27.435Z,993.61
2023-02-01T14:59:27.413Z,993.60
2023-02-01T15:00:27.688Z,993.61
2023-02-01T15:01:29.152Z,993.59
2023-02-01T15:02:27.422Z,993.65
2023-02-01T15:03:27.588Z,993.58
2023-02-01T15:04:27.393Z,993.73
2023-02-01T15:05:27.534Z,993.71
2023-02-01T15:06:27.786Z,993.58
2023-02-01T15:07:27.418Z,993.78
2023-02-01T15:08:27.300Z,993.75
2023-02-01T15:09:27.308Z,993.66
2023-02-01T15:10:27.405Z,993.77
2023-02-01T15:11:27.519Z,993.70
2023-02-01T15:12:27.349Z,993.64
2023-02-01T15:13:27.254Z,993.73
2023-02-01T15:14:28.151Z,993.67
2023-02-01T15:15:27.479Z,993.75
2023-02-01T15:16:27.700Z,993.75
2023-02-01T15:17:27.235Z,993.76
2023-02-01T15:18:27.459Z,993.85
2023-02-01T15:19:27.325Z,993.89
2023-02-01T15:20:27.265Z,993.85
2023-02-01T15:21:28.618Z,993.75
2023-02-01T15:22:28.233Z,993.81
2023-02-01T15:23:27.170Z,993.81
2023-02-01T15:24:28.385Z,993.76
2023-02-01T15:25:29.376Z,993.74
2023-02-01T15:26:28.630Z,993.67
2023-02-01T15:27:28.750Z,993.55
2023-02-01T15:28:28.363Z,993.53
2023-02-01T15:29:28.404Z,993.52
2023-02-01T15:30:28.361Z,993.50
2023-02-01T15:31:28.667Z,993.56
2023-02-01T15:32:29.757Z,993.57
2023-02-01T15:33:28.303Z,993.67
2023-02-01T15:34:28.509Z,993.53
2023-02-01T15:35:28.756Z,993.63
2023-02-01T15:36:29.084Z,993.59
2023-02-01T15:37:28.579Z,993.54
2023-02-01T15:38:28.330Z,993.56
2023-02-01T15:39:28.542Z,993.63
2023-02-01T15:40:28.525Z,993.58
2023-02-01T15:41:28.406Z,993.68
2023-02-01T15:42:28.779Z,993.76
2023-02-01T15:43:28.601Z,993.75
2023-02-01T15:44:28.323Z,993.70
2023-02-01T15:45:28.193Z,993.63
2023-02-01T15:46:28.884Z,993.76
2023-02-01T15:47:28.203Z,993.66
2023-02-01T15:48:28.613Z,993.80
2023-02-01T15:49:28.687Z,993.79
2023-02-01T15:50:28.666Z,993.81
2023-02-01T15:51:28.412Z,993.83
2023-02-01T15:52:28.349Z,993.83
2023-02-01T15:53:28.391Z,993.77
2023-02-01T15:54:28.328Z,993.72
2023-02-01T15:55:29.311Z,993.81
2023-02-01T15:56:29.275Z,993.77
2023-02-01T15:57:28.485Z,993.73
2023-02-01T15:58:29.592Z,993.72
2023-02-01T15:59:28.054Z,993.75
2023-02-01T16:00:28.591Z,993.75
2023-02-01T16:01:28.409Z,993.75
2023-02-01T16:02:28.342Z,993.75
2023-02-01T16:03:28.802Z,993.70
2023-02-01T16:04:28.134Z,993.74
2023-02-01T16:05:28.177Z,993.70
2023-02-01T16:06:28.176Z,993.76
2023-02-01T16:07:28.090Z,993.71
2023-02-01T16:08:28.835Z,993.80
2023-02-01T16:09:28.343Z,993.76
2023-02-01T16:10:28.726Z,993.85
2023-02-01T16:11:28.401Z,993.87
2023-02-01T16:12:27.962Z,993.89
2023-02-01T16:13:28.915Z,993.96
2023-02-01T16:14:27.955Z,993.88
2023-02-01T16:15:27.965Z,993.68
2023-02-01T16:16:27.905Z,993.79
2023-02-01T16:17:27.898Z,993.88
2023-02-01T16:18:27.873Z,993.82
2023-02-01T16:19:27.913Z,993.87
2023-02-01T16:20:27.856Z,993.89
2023-02-01T16:21:27.855Z,993.88
2023-02-01T16:22:27.885Z,993.96
2023-02-01T16:23:30.815Z,993.94
2023-02-01T16:24:28.832Z,993.96
2023-02-01T16:25:28.303Z,993.92
2023-02-01T16:26:27.886Z,993.96
2023-02-01T16:27:27.924Z,993.89
2023-02-01T16:28:28.688Z,993.84
2023-02-01T16:29:27.753Z,993.89
2023-02-01T16:30:27.818Z,993.93
2023-02-01T16:32:03.117Z,993.87
2023-02-01T16:32:27.885Z,993.85
2023-02-01T16:33:27.756Z,993.89
2023-02-01T16:34:29.025Z,993.88
2023-02-01T16:35:27.725Z,993.88
2023-02-01T16:36:28.035Z,993.94
2023-02-01T16:37:27.750Z,993.94
2023-02-01T16:38:27.763Z,993.84
2023-02-01T16:39:28.564Z,993.94
2023-02-01T16:40:27.818Z,993.96
2023-02-01T16:41:28.241Z,993.93
2023-02-01T16:42:28.428Z,993.94
2023-02-01T16:43:27.685Z,993.96
2023-02-01T16:44:27.583Z,994.00
2023-02-01T16:45:27.694Z,994.00
2023-02-01T16:46:28.046Z,994.01
2023-02-01T16:47:27.688Z,993.99
2023-02-01T16:48:27.737Z,994.01
2023-02-01T16:49:27.622Z,994.01
2023-02-01T16:50:27.704Z,994.04
2023-02-01T16:51:27.584Z,994.08
2023-02-01T16:52:27.827Z,994.05
2023-02-01T16:53:27.689Z,994.01
2023-02-01T16:54:27.734Z,994.06
2023-02-01T16:55:27.675Z,994.04
2023-02-01T16:56:27.534Z,994.10
2023-02-01T16:57:27.498Z,994.05
2023-02-01T16:58:27.573Z,994.07
2023-02-01T16:59:27.548Z,994.02
2023-02-01T17:00:27.796Z,994.13
2023-02-01T17:01:27.612Z,994.14
2023-02-01T17:02:28.352Z,994.15
2023-02-01T17:03:27.829Z,994.10
2023-02-01T17:04:27.865Z,994.18
2023-02-01T17:05:27.786Z,994.06
2023-02-01T17:06:27.456Z,994.07
2023-02-01T17:07:27.503Z,994.07
2023-02-01T17:08:27.425Z,994.02
2023-02-01T17:09:33.461Z,993.99
2023-02-01T17:10:34.280Z,994.00
2023-02-01T17:12:02.734Z,994.03
2023-02-01T17:12:29.806Z,994.08
2023-02-01T17:13:30.678Z,994.00
2023-02-01T17:14:32.818Z,994.11
2023-02-01T17:15:28.325Z,994.06
2023-02-01T17:16:28.333Z,994.11
2023-02-01T17:18:02.472Z,994.12
2023-02-01T17:18:27.333Z,994.15
2023-02-01T17:19:29.126Z,994.15
2023-02-01T17:20:28.035Z,994.09
2023-02-01T17:23:36.128Z,994.16
2023-02-01T17:24:48.281Z,994.28
2023-02-01T17:25:37.957Z,994.33
2023-02-01T17:26:38.046Z,994.35
2023-02-01T17:27:35.962Z,994.36
2023-02-01T17:28:35.935Z,994.39
2023-02-01T17:29:35.908Z,994.40
2023-02-01T17:30:35.913Z,994.37
2023-02-01T17:31:35.916Z,994.32
2023-02-01T17:32:35.845Z,994.39
2023-02-01T17:33:36.611Z,994.39
2023-02-01T17:34:36.068Z,994.33
2023-02-01T17:35:35.900Z,994.36
2023-02-01T17:36:37.216Z,994.30
2023-02-01T17:37:36.893Z,994.32
2023-02-01T17:38:36.052Z,994.30
2023-02-01T17:39:35.768Z,994.27
2023-02-01T17:40:35.801Z,994.30
2023-02-01T17:41:37.835Z,994.31
2023-02-01T17:42:38.049Z,994.37
2023-02-01T17:43:36.936Z,994.52
2023-02-01T17:44:39.760Z,994.42
2023-02-01T17:45:38.322Z,994.51
2023-02-01T17:46:36.971Z,994.32
2023-02-01T17:47:37.209Z,994.52
2023-02-01T17:48:37.273Z,994.62
2023-02-01T17:49:37.790Z,994.47
2023-02-01T17:50:37.380Z,994.55
2023-02-01T17:51:36.905Z,994.56
2023-02-01T17:52:37.296Z,994.65
2023-02-01T17:53:37.267Z,994.59
2023-02-01T17:54:37.727Z,994.66
2023-02-01T17:55:37.812Z,994.56
2023-02-01T17:56:37.825Z,994.66
2023-02-01T17:57:37.225Z,994.67
2023-02-01T17:58:37.643Z,994.58
2023-02-01T17:59:38.929Z,994.67
2023-02-01T18:00:38.847Z,994.66
2023-02-01T18:01:40.635Z,994.66
2023-02-01T18:02:37.067Z,994.69
2023-02-01T18:03:36.776Z,994.67
2023-02-01T18:04:36.778Z,994.68
2023-02-01T18:05:37.310Z,994.81
2023-02-01T18:06:38.354Z,994.88
2023-02-01T18:07:37.972Z,994.89
2023-02-01T18:08:37.532Z,994.88
2023-02-01T18:09:36.735Z,994.94
2023-02-01T18:10:36.751Z,994.87
2023-02-01T18:11:36.963Z,994.81
2023-02-01T18:12:37.882Z,994.83
2023-02-01T18:13:37.728Z,994.81
2023-02-01T18:14:37.038Z,994.76
2023-02-01T18:15:36.847Z,994.86
2023-02-01T18:16:36.684Z,994.81
2023-02-01T18:17:36.712Z,994.77
2023-02-01T18:18:38.814Z,994.93
2023-02-01T18:19:37.879Z,994.93
2023-02-01T18:20:36.652Z,994.95
2023-02-01T18:21:36.551Z,994.92
2023-02-01T18:22:36.720Z,994.99
2023-02-01T18:23:36.605Z,994.99
2023-02-01T18:24:36.591Z,994.99
2023-02-01T18:25:36.571Z,995.06
2023-02-01T18:26:36.871Z,995.01
2023-02-01T18:27:36.666Z,995.01
2023-02-01T18:28:36.785Z,994.97
2023-02-01T18:29:36.475Z,995.18
2023-02-01T18:30:36.857Z,995.14
2023-02-01T18:31:36.604Z,995.16
2023-02-01T18:32:36.532Z,995.22
2023-02-01T18:33:36.445Z,995.41
2023-02-01T18:34:36.643Z,995.22
2023-02-01T18:35:36.627Z,995.13
2023-02-01T18:36:36.549Z,994.96
2023-02-01T18:37:36.461Z,995.00
2023-02-01T18:40:35.992Z,995.04
2023-02-01T18:41:35.934Z,995.10
2023-02-01T18:42:35.815Z,995.15
2023-02-01T18:43:36.386Z,995.22
2023-02-01T18:44:35.747Z,995.13
2023-02-01T18:45:35.673Z,995.15
2023-02-01T18:46:35.702Z,995.15
2023-02-01T18:47:37.125Z,995.09
2023-02-01T18:48:36.908Z,995.03
2023-02-01T18:49:37.808Z,995.15
2023-02-01T18:50:39.382Z,995.16
2023-02-01T18:51:36.772Z,995.00
2023-02-01T18:52:36.933Z,995.09
2023-02-01T18:53:37.415Z,995.14
2023-02-01T18:54:37.813Z,995.14
2023-02-01T18:55:36.853Z,995.18
2023-02-01T18:56:36.891Z,995.10
2023-02-01T18:57:36.796Z,994.99
2023-02-01T18:58:36.832Z,995.10
2023-02-01T18:59:37.265Z,995.17
2023-02-01T19:00:36.835Z,995.20
2023-02-01T19:01:37.045Z,995.22
2023-02-01T19:02:37.005Z,995.34
2023-02-01T19:03:42.264Z,995.15
2023-02-01T19:04:37.790Z,995.26
2023-02-01T19:05:37.799Z,995.37
2023-02-01T19:06:37.618Z,995.30
2023-02-01T19:07:36.994Z,995.34
2023-02-01T19:08:38.755Z,995.14
2023-02-01T19:09:37.700Z,995.25
2023-02-01T19:10:36.649Z,995.34
2023-02-01T19:11:36.696Z,995.38
2023-02-01T19:12:36.873Z,995.35
2023-02-01T19:13:37.691Z,995.32
2023-02-01T19:14:36.519Z,995.23
2023-02-01T19:15:36.633Z,995.31
2023-02-01T19:16:36.860Z,995.19
2023-02-01T19:17:36.599Z,995.33
2023-02-01T19:18:36.733Z,995.29
2023-02-01T19:19:36.560Z,995.27
2023-02-01T19:20:36.514Z,995.32
2023-02-01T19:21:36.676Z,995.30
2023-02-01T19:22:36.527Z,995.30
2023-02-01T19:23:36.573Z,995.25
2023-02-01T19:24:36.589Z,995.23
2023-02-01T19:25:36.528Z,995.37